Latest Coastal Weather Observations for South Johnstone

IDQ60701

Issued at 1:02 pm EST Saturday 27 August 2016 (issued every 10 minutes, with the page automatically refreshed every 10 minutes)

About coastal observations | Map of coastal stations | Coastal observations for QLD | Marine services | Other Formats
Station Details ID: 032037 Name: SOUTH JOHNSTONE EXP STN Lat: -17.61 Lon: 146.00 Height: 18.3 m
Data from the previous 72 hours. | See also: Recent months at South Johnstone
Date/Time
EST
Temp
°C
Wind Pressure Rain since
9am
mm
Weather Cloud Vis
km
Sea
Height
m
Swell
Dir  Spd
kts
Gust
kts
hPa Trend Height
m
Period
s
Dir
27/01:00pm 22.1 SSE 9 13 1019.9 - 0.0 - - - - - - -
27/12:30pm 21.8 SSE 9 14 1020.3 - 0.0 - - - - - - -
27/12:00pm 21.7 S 11 17 1020.6 - 0.0 - - - - - - -
27/11:30am 21.8 SSE 9 16 1021.1 - 0.0 - - - - - - -
27/11:00am 21.3 SSE 10 16 1021.3 - 0.0 - - - - - - -
27/10:30am 22.4 S 10 15 1021.4 - 0.0 - - - - - - -
27/10:00am 21.7 S 7 11 1021.6 - 0.0 - - - - - - -
27/09:30am 21.0 SSW 7 11 1021.5 - 0.0 - - - - - - -
27/09:00am 20.5 SSW 6 11 1021.0 - 0.2 - - - - - - -
27/08:30am 18.7 SW 6 8 1021.2 - 0.2 - - - - - - -
27/08:00am 17.1 WSW 7 9 1021.1 - 0.2 - - - - - - -
27/07:30am 15.4 WSW 7 10 1020.9 - 0.2 - - - - - - -
27/07:00am 14.2 WSW 7 10 1020.5 - 0.2 - - - - - - -
27/06:30am 13.9 WSW 7 9 1020.1 - 0.2 - - - - - - -
27/06:00am 14.6 WSW 7 10 1019.5 - 0.2 - - - - - - -
27/05:30am 14.9 WSW 6 9 1019.1 - 0.2 - - - - - - -
27/05:00am 15.6 WSW 6 7 1018.7 - 0.2 - - - - - - -
27/04:30am 16.8 SW 7 15 1018.5 - 0.2 - - - - - - -
27/04:00am 18.9 SSW 7 12 1018.4 - 0.2 - - - - - - -
27/03:30am 18.7 SSW 6 10 1018.6 - 0.2 - - - - - - -
27/03:00am 19.7 SSW 7 10 1018.2 - 0.2 - - - - - - -
27/02:30am 19.9 SSW 6 10 1018.3 - 0.2 - - - - - - -
27/02:00am 20.0 S 6 10 1018.2 - 0.2 - - - - - - -
27/01:30am 20.3 SSW 7 11 1018.2 - 0.2 - - - - - - -
27/01:00am 19.9 S 5 9 1018.3 - 0.2 - - - - - - -
27/12:30am 19.6 S 3 6 1018.3 - 0.2 - - - - - - -
27/12:00am 18.9 CALM 0 0 1018.2 - 0.2 - - - - - - -
 
Date/Time
EST
Temp
°C
Wind Pressure Rain since
9am
mm
Weather Cloud Vis
km
Sea
Height
m
Swell
Dir  Spd
kts
Gust
kts
hPa Trend Height
m
Period
s
Dir
26/11:30pm 18.9 W 2 4 1018.1 - 0.2 - - - - - - -
26/11:00pm 19.1 CALM 0 0 1018.1 - 0.2 - - - - - - -
26/10:30pm 19.1 WNW 2 4 1018.0 - 0.2 - - - - - - -
26/10:00pm 19.1 W 3 6 1017.6 - 0.2 - - - - - - -
26/09:30pm 19.1 WSW 5 7 1017.3 - 0.2 - - - - - - -
26/09:00pm 19.5 WSW 5 6 1017.1 - 0.2 - - - - - - -
26/08:30pm 20.3 SW 6 7 1017.0 - 0.2 - - - - - - -
26/08:00pm 20.3 WSW 5 6 1016.6 - 0.2 - - - - - - -
26/07:30pm 20.7 WSW 4 7 1016.1 - 0.2 - - - - - - -
26/07:00pm 22.0 SSW 4 7 1015.7 - 0.2 - - - - - - -
26/06:30pm 22.1 SSW 4 7 1015.3 - 0.2 - - - - - - -
26/06:00pm 22.0 CALM 0 3 1014.7 - 0.2 - - - - - - -
26/05:30pm 22.3 SE 5 7 1014.4 - 0.2 - - - - - - -
26/05:00pm 22.5 SE 7 12 1014.0 - 0.2 - - - - - - -
26/04:30pm 22.6 SE 8 14 1013.8 - 0.2 - - - - - - -
26/04:00pm 23.1 ESE 8 12 1013.4 - 0.2 - - - - - - -
26/03:30pm 24.0 ESE 8 13 1013.2 - 0.2 - - - - - - -
26/03:00pm 24.5 SE 8 13 1013.0 - 0.2 - - - - - - -
26/02:30pm 24.5 SE 9 13 1013.2 - 0.2 - - - - - - -
26/02:00pm 24.5 ESE 8 12 1013.3 - 0.2 - - - - - - -
26/01:30pm 25.2 SE 7 11 1013.5 - 0.2 - - - - - - -
26/01:00pm 24.1 ESE 8 13 1013.9 - 0.2 - - - - - - -
26/12:30pm 25.1 SE 10 16 1014.4 - 0.0 - - - - - - -
26/12:00pm 25.1 SSE 9 15 1014.6 - 0.0 - - - - - - -
26/11:30am 24.5 SE 10 15 1014.9 - 0.0 - - - - - - -
26/11:00am 24.0 SE 9 13 1015.4 - 0.0 - - - - - - -
26/10:30am 24.8 SE 7 12 1015.7 - 0.0 - - - - - - -
26/10:00am 25.0 S 7 12 1016.0 - 0.0 - - - - - - -
26/09:30am 23.8 CALM 0 5 1016.0 - 0.0 - - - - - - -
26/09:00am 23.0 CALM 0 0 1015.9 - 0.6 - - - - - - -
26/08:30am 22.2 CALM 0 0 1015.9 - 0.6 - - - - - - -
26/08:00am 21.6 CALM 0 0 1015.6 - 0.6 - - - - - - -
26/07:30am 20.7 CALM 0 0 1015.3 - 0.6 - - - - - - -
26/07:00am 20.1 WSW 4 6 1015.1 - 0.6 - - - - - - -
26/06:30am 19.9 SW 1 5 1014.9 - 0.6 - - - - - - -
26/06:00am 19.7 WSW 5 7 1014.0 - 0.6 - - - - - - -
26/05:30am 19.7 WSW 3 6 1013.6 - 0.6 - - - - - - -
26/05:00am 19.9 CALM 0 0 1013.5 - 0.6 - - - - - - -
26/04:30am 20.0 WSW 5 7 1013.2 - 0.6 - - - - - - -
26/04:00am 20.3 CALM 0 3 1013.0 - 0.6 - - - - - - -
26/03:30am 20.4 WSW 4 5 1012.9 - 0.6 - - - - - - -
26/03:00am 20.6 WSW 4 6 1013.1 - 0.6 - - - - - - -
26/02:30am 20.8 SW 1 6 1013.5 - 0.6 - - - - - - -
26/02:00am 20.7 WSW 2 4 1013.7 - 0.6 - - - - - - -
26/01:30am 20.9 WSW 3 5 1014.1 - 0.6 - - - - - - -
26/01:00am 20.9 WSW 1 5 1014.2 - 0.6 - - - - - - -
26/12:30am 20.9 WSW 3 6 1014.3 - 0.6 - - - - - - -
26/12:00am 21.0 WSW 4 7 1014.5 - 0.6 - - - - - - -
 
Date/Time
EST
Temp
°C
Wind Pressure Rain since
9am
mm
Weather Cloud Vis
km
Sea
Height
m
Swell
Dir  Spd
kts
Gust
kts
hPa Trend Height
m
Period
s
Dir
25/11:30pm 20.9 SW 6 9 1014.9 - 0.6 - - - - - - -
25/11:00pm 21.0 W 3 5 1014.9 - 0.6 - - - - - - -
25/10:30pm 20.9 WSW 4 7 1014.9 - 0.6 - - - - - - -
25/10:00pm 20.9 SW 5 6 1014.6 - 0.6 - - - - - - -
25/09:30pm 21.2 SW 6 9 1014.7 - 0.2 - - - - - - -
25/09:00pm 21.8 WSW 4 6 1014.5 - 0.0 - - - - - - -
25/08:30pm 22.0 SW 4 5 1014.4 - 0.0 - - - - - - -
25/08:00pm 22.3 CALM 0 0 1014.0 - 0.0 - - - - - - -
25/07:30pm 22.7 SW 4 6 1013.7 - 0.0 - - - - - - -
25/07:00pm 22.8 SSW 2 4 1013.3 - 0.0 - - - - - - -
25/06:30pm 22.6 S 1 4 1012.9 - 0.0 - - - - - - -
25/06:00pm 22.8 SSE 3 6 1012.4 - 0.0 - - - - - - -
25/05:30pm 23.1 SE 6 8 1012.3 - 0.0 - - - - - - -
25/05:00pm 23.2 ESE 6 10 1012.0 - 0.0 - - - - - - -
25/04:30pm 23.4 SE 7 10 1011.5 - 0.0 - - - - - - -
25/04:00pm 23.7 SE 6 10 1011.1 - 0.0 - - - - - - -
25/03:30pm 23.8 SE 8 12 1010.9 - 0.0 - - - - - - -
25/03:00pm 23.5 ESE 7 11 1010.9 - 0.0 - - - - - - -
25/02:30pm 23.9 SE 8 13 1010.9 - 0.0 - - - - - - -
25/02:00pm 24.2 SE 8 11 1011.2 - 0.0 - - - - - - -
25/01:30pm 24.1 SE 8 12 1011.3 - 0.0 - - - - - - -
25/01:00pm 24.6 ESE 9 13 1011.5 - 0.0 - - - - - - -
25/12:30pm 24.9 SE 9 12 1011.8 - 0.0 - - - - - - -
25/12:00pm 25.5 ESE 8 14 1011.8 - 0.0 - - - - - - -
25/11:30am 25.6 SE 8 12 1012.4 - 0.0 - - - - - - -
25/11:00am 25.2 SE 7 12 1012.5 - 0.0 - - - - - - -
25/10:30am 25.6 ESE 8 13 1012.9 - 0.0 - - - - - - -
25/10:00am 24.9 SE 7 10 1013.2 - 0.0 - - - - - - -
25/09:30am 24.2 SE 4 8 1013.1 - 0.0 - - - - - - -
25/09:00am 23.1 CALM 0 0 1013.0 - 0.2 - - - - - - -
25/08:30am 22.4 CALM 0 0 1013.1 - 0.2 - - - - - - -
25/08:00am 22.0 CALM 0 0 1012.7 - 0.2 - - - - - - -
25/07:30am 21.7 CALM 0 2 1012.4 - 0.2 - - - - - - -
25/07:00am 21.3 CALM 0 0 1012.1 - 0.2 - - - - - - -
25/06:30am 21.3 WNW 1 5 1011.7 - 0.2 - - - - - - -
25/06:00am 21.3 CALM 0 1 1011.2 - 0.2 - - - - - - -
25/05:30am 21.2 CALM 0 0 1011.0 - 0.2 - - - - - - -
25/05:00am 21.4 CALM 0 1 1011.1 - 0.2 - - - - - - -
25/04:30am 21.4 CALM 0 0 1010.9 - 0.2 - - - - - - -
25/04:00am 21.5 CALM 0 0 1010.5 - 0.2 - - - - - - -
25/03:30am 21.4 CALM 0 0 1010.3 - 0.2 - - - - - - -
25/03:00am 21.6 CALM 0 0 1010.3 - 0.2 - - - - - - -
25/02:30am 21.5 CALM 0 3 1010.4 - 0.2 - - - - - - -
25/02:00am 21.6 CALM 0 0 1010.1 - 0.2 - - - - - - -
25/01:30am 21.8 W 2 5 1010.4 - 0.2 - - - - - - -
25/01:00am 21.9 WSW 2 5 1010.7 - 0.2 - - - - - - -
25/12:30am 22.3 WSW 5 6 1010.9 - 0.2 - - - - - - -
25/12:00am 22.1 CALM 0 0 1011.0 - 0.2 - - - - - - -
 
Date/Time
EST
Temp
°C
Wind Pressure Rain since
9am
mm
Weather Cloud Vis
km
Sea
Height
m
Swell
Dir  Spd
kts
Gust
kts
hPa Trend Height
m
Period
s
Dir
24/11:30pm 22.2 CALM 0 0 1011.3 - 0.2 - - - - - - -
24/11:00pm 22.3 CALM 0 0 1011.3 - 0.2 - - - - - - -
24/10:30pm 22.6 CALM 0 0 1011.3 - 0.2 - - - - - - -
24/10:00pm 22.9 CALM 0 0 1011.2 - 0.2 - - - - - - -
24/09:30pm 23.0 CALM 0 0 1011.2 - 0.2 - - - - - - -
24/09:00pm 23.1 WSW 1 5 1011.0 - 0.2 - - - - - - -
24/08:30pm 23.3 CALM 0 0 1011.0 - 0.2 - - - - - - -
24/08:00pm 23.4 CALM 0 0 1010.7 - 0.2 - - - - - - -
24/07:30pm 23.7 CALM 0 0 1010.3 - 0.2 - - - - - - -
24/07:00pm 23.9 CALM 0 0 1009.6 - 0.2 - - - - - - -
24/06:30pm 24.5 CALM 0 0 1009.2 - 0.2 - - - - - - -
24/06:00pm 25.4 NE 1 5 1008.9 - 0.2 - - - - - - -
24/05:30pm 26.1 NNE 4 8 1008.5 - 0.2 - - - - - - -
24/05:00pm 26.8 NE 6 8 1008.2 - 0.2 - - - - - - -
24/04:30pm 27.4 NE 6 10 1008.1 - 0.2 - - - - - - -
24/04:00pm 27.9 NE 8 13 1008.1 - 0.2 - - - - - - -
24/03:30pm 28.2 NNE 7 11 1008.1 - 0.2 - - - - - - -
24/03:00pm 28.6 NNE 7 10 1008.1 - 0.2 - - - - - - -
24/02:30pm 28.6 ENE 8 12 1008.4 - 0.2 - - - - - - -
24/02:00pm 28.7 ENE 8 12 1008.8 - 0.2 - - - - - - -
24/01:30pm 28.4 ENE 7 12 1009.3 - 0.2 - - - - - - -

Other Formats:

Comma delimited format used in spreadsheet applications
http://www.bom.gov.au/fwo/IDQ60701/IDQ60701.95292.axf

JavaScript Object Notation format (JSON) in row-major order
http://www.bom.gov.au/fwo/IDQ60701/IDQ60701.95292.json